createdAt,value
2022-08-07T00:00:24.922Z,94.17
2022-08-07T00:01:43.687Z,94.17
2022-08-07T00:02:39.938Z,94.07
2022-08-07T00:03:25.744Z,94.07
2022-08-07T00:04:24.454Z,93.96
2022-08-07T00:05:24.056Z,94.07
2022-08-07T00:06:29.277Z,94.07
2022-08-07T00:07:24.573Z,94.37
2022-08-07T00:08:23.565Z,94.37
2022-08-07T00:09:34.301Z,94.58
2022-08-07T00:10:27.144Z,94.68
2022-08-07T00:11:29.910Z,94.78
2022-08-07T00:12:24.508Z,94.89
2022-08-07T00:13:25.729Z,94.98
2022-08-07T00:14:25.514Z,94.98
2022-08-07T00:15:24.506Z,94.98
2022-08-07T00:16:28.041Z,95.19
2022-08-07T00:17:23.537Z,95.19
2022-08-07T00:18:24.682Z,95.09
2022-08-07T00:19:26.136Z,95.19
2022-08-07T00:20:29.813Z,95.09
2022-08-07T00:21:56.446Z,94.98
2022-08-07T00:22:35.077Z,94.89
2022-08-07T00:23:24.476Z,94.89
2022-08-07T00:24:23.389Z,94.98
2022-08-07T00:25:23.374Z,94.98
2022-08-07T00:26:48.793Z,95.03
2022-08-07T00:27:24.374Z,95.03
2022-08-07T00:28:23.357Z,95.03
2022-08-07T00:29:24.351Z,94.93
2022-08-07T00:30:27.745Z,94.82
2022-08-07T00:31:23.362Z,94.82
2022-08-07T00:32:28.350Z,94.82
2022-08-07T00:33:24.286Z,94.82
2022-08-07T00:34:23.289Z,94.73
2022-08-07T00:35:23.279Z,94.73
2022-08-07T00:36:23.302Z,94.62
2022-08-07T00:37:23.232Z,94.77
2022-08-07T00:38:31.641Z,94.77
2022-08-07T00:39:24.258Z,94.97
2022-08-07T00:40:36.265Z,94.97
2022-08-07T00:41:24.164Z,95.07
2022-08-07T00:42:29.034Z,95.18
2022-08-07T00:44:01.888Z,95.28
2022-08-07T00:44:24.224Z,95.38
2022-08-07T00:45:23.157Z,95.48
2022-08-07T00:46:23.177Z,95.48
2022-08-07T00:48:08.846Z,95.59
2022-08-07T00:48:31.054Z,95.59
2022-08-07T00:49:24.993Z,95.59
2022-08-07T00:50:46.286Z,95.59
2022-08-07T00:51:24.060Z,95.59
2022-08-07T00:52:24.051Z,95.59
2022-08-07T00:53:23.126Z,95.69
2022-08-07T00:54:23.367Z,95.69
2022-08-07T00:55:25.609Z,95.84
2022-08-07T00:56:30.251Z,95.79
2022-08-07T00:57:25.806Z,95.94
2022-08-07T00:58:23.051Z,96.04
2022-08-07T00:59:35.438Z,96.14
2022-08-07T01:01:44.379Z,96.25
2022-08-07T01:02:40.151Z,96.34
2022-08-07T01:03:55.675Z,96.34
2022-08-07T01:04:43.485Z,96.34
2022-08-07T01:05:39.057Z,96.45
2022-08-07T01:06:39.087Z,96.66
2022-08-07T01:07:39.104Z,96.75
2022-08-07T01:08:39.034Z,96.96
2022-08-07T01:10:04.474Z,96.96
2022-08-07T01:10:40.025Z,97.06
2022-08-07T01:12:09.098Z,97.27
2022-08-07T01:12:40.027Z,97.57
2022-08-07T01:13:39.994Z,97.74
2022-08-07T01:14:39.999Z,97.83
2022-08-07T01:16:01.141Z,97.88
2022-08-07T01:16:42.960Z,97.78
2022-08-07T01:17:39.964Z,97.78
2022-08-07T01:18:38.950Z,97.67
2022-08-07T01:19:39.917Z,97.57
2022-08-07T01:20:42.947Z,97.47
2022-08-07T01:21:38.919Z,97.37
2022-08-07T01:22:46.791Z,97.16
2022-08-07T01:23:41.732Z,97.11
2022-08-07T01:24:39.926Z,97.00
2022-08-07T01:25:53.564Z,97.00
2022-08-07T01:26:39.843Z,97.11
2022-08-07T01:27:41.061Z,97.21
2022-08-07T01:28:39.814Z,97.21
2022-08-07T01:29:38.777Z,97.21
2022-08-07T01:30:38.809Z,97.31
2022-08-07T01:31:42.349Z,97.41
2022-08-07T01:32:39.794Z,97.41
2022-08-07T01:33:55.779Z,97.41
2022-08-07T01:34:39.771Z,97.41
2022-08-07T01:35:53.281Z,97.41
2022-08-07T01:36:40.632Z,97.41
2022-08-07T01:37:38.763Z,97.41
2022-08-07T01:38:38.713Z,97.41
2022-08-07T01:39:40.387Z,97.56
2022-08-07T01:40:39.791Z,97.66
2022-08-07T01:41:38.718Z,97.66
2022-08-07T01:42:58.485Z,97.66
2022-08-07T01:43:39.666Z,97.77
2022-08-07T01:44:38.649Z,97.77
2022-08-07T01:45:40.141Z,97.87
2022-08-07T01:46:38.647Z,97.87
2022-08-07T01:48:19.231Z,97.87
2022-08-07T01:48:40.988Z,97.97
2022-08-07T01:49:38.614Z,98.07
2022-08-07T01:50:42.863Z,98.18
2022-08-07T01:52:02.706Z,98.28
2022-08-07T01:52:39.567Z,98.28
2022-08-07T01:54:12.266Z,98.38
2022-08-07T01:54:39.555Z,98.38
2022-08-07T01:55:38.758Z,98.49
2022-08-07T01:56:38.730Z,98.49
2022-08-07T01:58:01.643Z,98.49
2022-08-07T01:58:40.957Z,98.58
2022-08-07T01:59:40.058Z,98.53
2022-08-07T02:00:38.782Z,98.53
2022-08-07T02:02:02.028Z,98.53
2022-08-07T02:03:19.035Z,98.63
2022-08-07T02:03:48.660Z,98.63
2022-08-07T02:04:39.470Z,98.74
2022-08-07T02:05:43.393Z,99.04
2022-08-07T02:06:39.406Z,99.04
2022-08-07T02:07:50.230Z,99.15
2022-08-07T02:08:39.379Z,99.25
2022-08-07T02:09:52.974Z,99.35
2022-08-07T02:10:42.109Z,99.35
2022-08-07T02:12:04.584Z,99.25
2022-08-07T02:12:39.384Z,99.25
2022-08-07T02:13:57.247Z,99.15
2022-08-07T02:14:41.187Z,99.15
2022-08-07T02:15:38.304Z,99.04
2022-08-07T02:16:38.295Z,99.04
2022-08-07T02:17:38.272Z,99.15
2022-08-07T02:18:38.319Z,99.15
2022-08-07T02:20:07.540Z,99.25
2022-08-07T02:20:39.272Z,99.25
2022-08-07T02:21:56.509Z,99.35
2022-08-07T02:22:41.170Z,99.35
2022-08-07T02:23:38.289Z,99.35
2022-08-07T02:24:38.229Z,99.35
2022-08-07T02:26:10.405Z,99.35
2022-08-07T02:26:39.182Z,99.40
2022-08-07T02:27:41.196Z,99.40
2022-08-07T02:28:38.188Z,99.40
2022-08-07T02:29:43.621Z,99.29
2022-08-07T02:30:39.149Z,99.19
2022-08-07T02:31:38.157Z,99.19
2022-08-07T02:32:39.378Z,99.09
2022-08-07T02:34:01.571Z,99.09
2022-08-07T02:34:39.140Z,99.09
2022-08-07T02:36:28.599Z,99.19
2022-08-07T02:36:39.089Z,99.50
2022-08-07T02:37:38.098Z,99.80
2022-08-07T02:38:39.068Z,99.99
2022-08-07T02:39:43.068Z,99.99
2022-08-07T02:40:39.143Z,99.99
2022-08-07T02:41:38.124Z,99.99
2022-08-07T02:42:38.055Z,99.99
2022-08-07T02:44:37.845Z,99.99
2022-08-07T02:46:01.487Z,99.99
2022-08-07T02:46:46.803Z,99.99
2022-08-07T02:47:48.837Z,99.99
2022-08-07T02:48:38.762Z,99.99
2022-08-07T02:49:55.935Z,99.99
2022-08-07T02:50:38.764Z,99.99
2022-08-07T02:51:42.634Z,99.99
2022-08-07T02:52:38.730Z,99.99
2022-08-07T02:53:38.619Z,99.99
2022-08-07T02:54:37.726Z,99.99
2022-08-07T02:56:03.682Z,99.99
2022-08-07T02:56:38.923Z,99.99
2022-08-07T02:57:37.684Z,99.99
2022-08-07T02:58:37.696Z,99.99
2022-08-07T02:59:37.670Z,99.99
2022-08-07T03:00:39.280Z,99.99
2022-08-07T03:01:40.193Z,99.99
2022-08-07T03:02:37.661Z,99.99
2022-08-07T03:03:49.540Z,99.99
2022-08-07T03:04:38.605Z,99.99
2022-08-07T03:05:37.919Z,99.99
2022-08-07T03:06:37.573Z,99.99
2022-08-07T03:07:58.896Z,99.99
2022-08-07T03:08:38.564Z,99.99
2022-08-07T03:09:43.455Z,99.99
2022-08-07T03:10:46.197Z,99.99
2022-08-07T03:11:51.718Z,99.99
2022-08-07T03:12:38.535Z,99.99
2022-08-07T03:13:38.877Z,99.99
2022-08-07T03:14:38.506Z,99.99
2022-08-07T03:15:47.786Z,99.99
2022-08-07T03:16:38.576Z,99.99
2022-08-07T03:17:53.380Z,99.99
2022-08-07T03:18:38.445Z,99.99
2022-08-07T03:19:37.591Z,99.99
2022-08-07T03:20:37.455Z,99.99
2022-08-07T03:21:37.425Z,99.99
2022-08-07T03:22:37.402Z,99.99
2022-08-07T03:24:18.289Z,99.99
2022-08-07T03:24:38.372Z,99.99
2022-08-07T03:25:40.476Z,99.99
2022-08-07T03:26:51.036Z,99.99
2022-08-07T03:27:59.091Z,99.99
2022-08-07T03:28:39.586Z,99.99
2022-08-07T03:29:37.535Z,99.99
2022-08-07T03:30:37.322Z,99.99
2022-08-07T03:31:43.308Z,99.99
2022-08-07T03:32:38.723Z,99.99
2022-08-07T03:33:40.098Z,99.99
2022-08-07T03:34:39.193Z,99.99
2022-08-07T03:35:43.584Z,99.99
2022-08-07T03:36:38.261Z,99.99
2022-08-07T03:37:46.227Z,99.99
2022-08-07T03:38:38.233Z,99.99
2022-08-07T03:39:59.402Z,99.99
2022-08-07T03:40:38.222Z,99.99
2022-08-07T03:41:42.592Z,99.99
2022-08-07T03:42:38.198Z,99.99
2022-08-07T03:43:37.180Z,99.99
2022-08-07T03:44:37.175Z,99.99
2022-08-07T03:45:39.674Z,99.99
2022-08-07T03:46:38.156Z,99.99
2022-08-07T03:47:48.123Z,99.99
2022-08-07T03:48:45.393Z,99.99
2022-08-07T03:49:38.125Z,99.99
2022-08-07T03:50:37.119Z,99.99
2022-08-07T03:51:47.518Z,99.99
2022-08-07T03:52:38.053Z,99.99
2022-08-07T03:54:32.767Z,99.99
2022-08-07T03:54:54.150Z,99.99
2022-08-07T03:55:57.657Z,99.99
2022-08-07T03:56:38.023Z,99.99
2022-08-07T03:58:35.152Z,99.99
2022-08-07T03:59:08.425Z,99.99
2022-08-07T03:59:46.835Z,99.99
2022-08-07T04:00:38.097Z,99.99
2022-08-07T04:01:38.025Z,99.99
2022-08-07T04:02:41.170Z,99.99
2022-08-07T04:03:49.486Z,99.99
2022-08-07T04:04:37.962Z,99.99
2022-08-07T04:05:40.375Z,99.99
2022-08-07T04:06:38.862Z,99.99
2022-08-07T04:07:42.621Z,99.99
2022-08-07T04:08:37.895Z,99.99
2022-08-07T04:09:45.051Z,99.99
2022-08-07T04:10:38.802Z,99.99
2022-08-07T04:12:27.115Z,99.99
2022-08-07T04:12:37.871Z,99.99
2022-08-07T04:14:10.607Z,99.99
2022-08-07T04:14:45.839Z,99.99
2022-08-07T04:15:37.854Z,99.99
2022-08-07T04:16:36.827Z,99.99
2022-08-07T04:18:56.509Z,99.99
2022-08-07T04:18:59.754Z,99.99
2022-08-07T04:19:52.897Z,99.99
2022-08-07T04:20:37.787Z,99.99
2022-08-07T04:21:37.797Z,99.99
2022-08-07T04:22:36.749Z,99.99
2022-08-07T04:23:43.972Z,99.99
2022-08-07T04:24:39.158Z,99.99
2022-08-07T04:25:40.824Z,99.99
2022-08-07T04:26:36.702Z,99.99
2022-08-07T04:27:44.341Z,99.99
2022-08-07T04:28:37.688Z,99.99
2022-08-07T04:29:48.711Z,99.99
2022-08-07T04:30:43.787Z,99.99
2022-08-07T04:31:38.777Z,99.99
2022-08-07T04:32:37.644Z,99.99
2022-08-07T04:33:36.672Z,99.99
2022-08-07T04:34:36.662Z,99.99
2022-08-07T04:35:36.613Z,99.99
2022-08-07T04:36:36.589Z,99.99
2022-08-07T04:38:00.795Z,99.99
2022-08-07T04:38:37.584Z,99.99
2022-08-07T04:39:36.661Z,99.99
2022-08-07T04:40:36.543Z,99.99
2022-08-07T04:41:37.557Z,99.99
2022-08-07T04:42:36.555Z,99.99
2022-08-07T04:44:11.742Z,99.99
2022-08-07T04:44:37.531Z,99.99
2022-08-07T04:45:52.096Z,99.99
2022-08-07T04:46:51.327Z,99.99
2022-08-07T04:48:01.133Z,99.99
2022-08-07T04:48:37.456Z,99.99
2022-08-07T04:49:37.789Z,99.99
2022-08-07T04:50:36.445Z,99.99
2022-08-07T04:51:36.437Z,99.99
2022-08-07T04:52:36.431Z,99.99
2022-08-07T04:54:01.064Z,99.99
2022-08-07T04:54:37.423Z,99.99
2022-08-07T04:58:10.521Z,99.99
2022-08-07T04:58:13.158Z,99.99
2022-08-07T04:58:15.329Z,99.99
2022-08-07T04:59:09.080Z,99.99
2022-08-07T05:00:11.763Z,99.99
2022-08-07T05:00:37.438Z,99.99
2022-08-07T05:01:36.363Z,99.99
2022-08-07T05:02:36.327Z,99.99
2022-08-07T05:03:59.653Z,99.99
2022-08-07T05:04:37.283Z,99.99
2022-08-07T05:05:54.473Z,99.99
2022-08-07T05:06:43.581Z,99.99
2022-08-07T05:07:48.309Z,99.99
2022-08-07T05:08:59.349Z,99.99
2022-08-07T05:09:45.692Z,99.99
2022-08-07T05:10:37.219Z,99.99
2022-08-07T05:11:58.192Z,99.99
2022-08-07T05:12:37.201Z,99.99
2022-08-07T05:14:52.166Z,99.99
2022-08-07T05:14:52.666Z,99.99
2022-08-07T05:15:37.174Z,99.99
2022-08-07T05:16:36.188Z,99.99
2022-08-07T05:17:51.873Z,99.99
2022-08-07T05:18:37.123Z,99.99
2022-08-07T05:19:44.933Z,99.99
2022-08-07T05:20:37.179Z,99.99
2022-08-07T05:22:00.303Z,99.99
2022-08-07T05:22:37.117Z,99.99
2022-08-07T05:23:36.126Z,99.99
2022-08-07T05:24:39.423Z,99.99
2022-08-07T05:26:11.186Z,99.99
2022-08-07T05:26:37.072Z,99.99
2022-08-07T05:28:02.452Z,99.99
2022-08-07T05:28:37.029Z,99.99
2022-08-07T05:29:39.105Z,99.99
2022-08-07T05:30:37.026Z,99.99
2022-08-07T05:31:37.767Z,99.99
2022-08-07T05:32:35.985Z,99.84
2022-08-07T05:33:37.035Z,99.52
2022-08-07T05:34:35.968Z,99.32
2022-08-07T05:35:41.630Z,99.11
2022-08-07T05:36:39.190Z,98.81
2022-08-07T05:37:40.891Z,98.50
2022-08-07T05:39:01.498Z,98.40
2022-08-07T05:40:06.492Z,98.15
2022-08-07T05:40:36.951Z,97.85
2022-08-07T05:42:01.496Z,97.64
2022-08-07T05:42:39.171Z,97.44
2022-08-07T05:43:49.840Z,97.24
2022-08-07T05:44:36.841Z,97.03
2022-08-07T05:45:47.807Z,96.78
2022-08-07T05:46:36.853Z,96.47
2022-08-07T05:47:38.226Z,96.17
2022-08-07T05:48:36.831Z,95.96
2022-08-07T05:49:40.944Z,95.76
2022-08-07T05:50:35.806Z,95.41
2022-08-07T05:51:39.945Z,95.20
2022-08-07T05:52:36.786Z,95.00
2022-08-07T05:54:11.925Z,94.79
2022-08-07T05:54:53.738Z,94.70
2022-08-07T05:56:03.495Z,94.34
2022-08-07T05:56:36.724Z,94.04
2022-08-07T05:57:38.154Z,93.73
2022-08-07T05:58:37.489Z,93.52
2022-08-07T05:59:39.075Z,93.32
2022-08-07T06:00:36.689Z,93.22
2022-08-07T06:01:36.157Z,92.97
2022-08-07T06:02:35.653Z,92.97
2022-08-07T06:03:56.813Z,92.97
2022-08-07T06:04:36.649Z,92.77
2022-08-07T06:05:35.641Z,92.57
2022-08-07T06:06:35.629Z,92.32
2022-08-07T06:08:14.612Z,91.91
2022-08-07T06:08:42.067Z,91.81
2022-08-07T06:09:45.289Z,91.77
2022-08-07T06:10:36.603Z,91.77
2022-08-07T06:11:35.585Z,91.36
2022-08-07T06:12:35.549Z,91.26
2022-08-07T06:14:11.921Z,91.16
2022-08-07T06:14:36.556Z,90.91
2022-08-07T06:15:39.400Z,90.81
2022-08-07T06:16:36.508Z,90.70
2022-08-07T06:17:37.407Z,90.40
2022-08-07T06:18:35.490Z,89.99
2022-08-07T06:19:47.887Z,89.54
2022-08-07T06:20:49.610Z,89.44
2022-08-07T06:22:15.984Z,89.24
2022-08-07T06:22:40.063Z,89.24
2022-08-07T06:24:36.844Z,88.83
2022-08-07T06:24:45.762Z,88.79
2022-08-07T06:25:36.402Z,88.48
2022-08-07T06:26:35.396Z,88.18
2022-08-07T06:27:44.427Z,88.04
2022-08-07T06:28:36.396Z,88.13
2022-08-07T06:29:38.749Z,87.73
2022-08-07T06:30:38.036Z,87.23
2022-08-07T06:31:47.345Z,86.71
2022-08-07T06:32:36.350Z,86.21
2022-08-07T06:33:35.322Z,85.76
2022-08-07T06:34:35.318Z,85.46
2022-08-07T06:35:45.702Z,85.55
2022-08-07T06:36:36.311Z,85.25
2022-08-07T06:37:44.106Z,85.31
2022-08-07T06:38:36.278Z,85.21
2022-08-07T06:40:15.756Z,84.80
2022-08-07T06:40:36.393Z,84.56
2022-08-07T06:42:01.116Z,84.87
2022-08-07T06:42:36.231Z,84.46
2022-08-07T06:43:39.556Z,83.75
2022-08-07T06:44:36.686Z,83.81
2022-08-07T06:45:35.687Z,83.81
2022-08-07T06:46:35.615Z,83.81
2022-08-07T06:47:38.719Z,84.42
2022-08-07T06:48:36.148Z,84.48
2022-08-07T06:49:35.125Z,83.87
2022-08-07T06:50:36.171Z,83.47
2022-08-07T06:51:35.127Z,83.43
2022-08-07T06:52:36.457Z,83.33
2022-08-07T06:55:29.877Z,82.82
2022-08-07T06:55:33.714Z,82.48
2022-08-07T06:55:47.860Z,81.77
2022-08-07T06:56:36.065Z,81.16
2022-08-07T06:57:43.549Z,78.83
2022-08-07T06:58:36.073Z,78.42
2022-08-07T07:00:12.031Z,79.71
2022-08-07T07:00:36.061Z,79.50
2022-08-07T07:01:44.155Z,78.89
2022-08-07T07:02:54.491Z,78.69
2022-08-07T07:03:48.852Z,78.15
2022-08-07T07:04:36.001Z,77.75
2022-08-07T07:06:03.579Z,78.75
2022-08-07T07:06:57.274Z,78.15
2022-08-07T07:07:59.756Z,77.61
2022-08-07T07:08:35.936Z,77.00
2022-08-07T07:09:36.225Z,76.29
2022-08-07T07:10:34.943Z,76.09
2022-08-07T07:12:08.518Z,75.55
2022-08-07T07:12:35.913Z,75.45
2022-08-07T07:13:56.672Z,74.43
2022-08-07T07:14:36.436Z,74.43
2022-08-07T07:15:35.969Z,74.40
2022-08-07T07:16:45.330Z,73.90
2022-08-07T07:17:39.090Z,74.70
2022-08-07T07:18:48.305Z,73.79
2022-08-07T07:19:55.286Z,73.69
2022-08-07T07:20:35.905Z,73.35
2022-08-07T07:22:04.309Z,72.75
2022-08-07T07:24:06.330Z,72.55
2022-08-07T07:24:08.018Z,72.14
2022-08-07T07:24:35.743Z,72.14
2022-08-07T07:26:31.358Z,69.62
2022-08-07T07:26:37.198Z,69.78
2022-08-07T07:27:35.719Z,69.98
2022-08-07T07:29:23.517Z,70.49
2022-08-07T07:29:56.456Z,69.35
2022-08-07T07:30:38.470Z,69.15
2022-08-07T07:31:39.753Z,68.74
2022-08-07T07:32:35.670Z,69.65
2022-08-07T07:33:34.684Z,69.62
2022-08-07T07:34:34.676Z,70.02
2022-08-07T07:35:44.850Z,69.92
2022-08-07T07:36:36.326Z,69.18
2022-08-07T07:37:47.269Z,68.17
2022-08-07T07:38:36.053Z,68.77
2022-08-07T07:39:45.708Z,68.27
2022-08-07T07:40:35.629Z,68.17
2022-08-07T07:41:50.860Z,68.54
2022-08-07T07:42:35.606Z,68.04
2022-08-07T07:44:13.693Z,68.44
2022-08-07T07:44:35.558Z,68.44
2022-08-07T07:46:38.102Z,67.91
2022-08-07T07:46:55.152Z,68.01
2022-08-07T07:47:42.710Z,68.21
2022-08-07T07:48:36.114Z,68.68
2022-08-07T07:50:34.753Z,66.97
2022-08-07T07:50:38.790Z,66.06
2022-08-07T07:51:58.304Z,66.36
2022-08-07T07:52:35.429Z,65.96
2022-08-07T07:53:34.937Z,66.06
2022-08-07T07:54:34.431Z,66.23
2022-08-07T07:55:37.694Z,66.03
2022-08-07T07:56:35.431Z,67.24
2022-08-07T07:57:52.606Z,66.83
2022-08-07T07:58:37.079Z,66.30
2022-08-07T07:59:52.813Z,65.80
2022-08-07T08:00:35.412Z,65.80
2022-08-07T08:02:02.379Z,65.16
2022-08-07T08:02:35.863Z,65.06
2022-08-07T08:04:06.258Z,64.56
2022-08-07T08:04:35.977Z,63.93
2022-08-07T08:05:51.063Z,64.43
2022-08-07T08:06:35.292Z,64.53
2022-08-07T08:07:35.739Z,65.30
2022-08-07T08:08:37.054Z,63.39
2022-08-07T08:09:51.842Z,62.19
2022-08-07T08:10:37.680Z,63.29
2022-08-07T08:11:59.184Z,62.86
2022-08-07T08:12:52.725Z,62.16
2022-08-07T08:13:50.776Z,62.16
2022-08-07T08:14:36.157Z,61.76
2022-08-07T08:15:57.920Z,61.96
2022-08-07T08:16:35.489Z,61.25
2022-08-07T08:17:58.169Z,60.96
2022-08-07T08:18:35.181Z,60.42
2022-08-07T08:20:17.446Z,61.13
2022-08-07T08:20:35.138Z,61.13
2022-08-07T08:21:55.499Z,60.62
2022-08-07T08:22:35.152Z,61.33
2022-08-07T08:23:34.794Z,62.00
2022-08-07T08:24:36.137Z,61.60
2022-08-07T08:25:42.866Z,60.60
2022-08-07T08:26:35.100Z,60.10
2022-08-07T08:27:34.178Z,57.48
2022-08-07T08:28:38.774Z,58.18
2022-08-07T08:29:35.048Z,58.29
2022-08-07T08:30:37.472Z,58.59
2022-08-07T08:31:58.742Z,58.39
2022-08-07T08:32:38.533Z,58.69
2022-08-07T08:33:34.024Z,59.09
2022-08-07T08:34:34.020Z,58.26
2022-08-07T08:35:39.361Z,57.96
2022-08-07T08:36:34.996Z,57.66
2022-08-07T08:38:01.604Z,60.16
2022-08-07T08:38:38.582Z,58.56
2022-08-07T08:39:39.514Z,58.66
2022-08-07T08:40:34.960Z,58.06
2022-08-07T08:41:58.153Z,57.33
2022-08-07T08:42:34.907Z,57.23
2022-08-07T08:43:42.974Z,56.90
2022-08-07T08:45:59.428Z,55.93
2022-08-07T08:46:46.042Z,53.59
2022-08-07T08:47:52.318Z,54.00
2022-08-07T08:48:45.961Z,53.39
2022-08-07T08:49:46.469Z,53.22
2022-08-07T08:50:46.263Z,52.72
2022-08-07T08:51:49.450Z,52.52
2022-08-07T08:52:53.743Z,52.12
2022-08-07T08:53:46.010Z,51.32
2022-08-07T08:54:44.911Z,51.01
2022-08-07T08:55:54.730Z,52.01
2022-08-07T08:56:47.308Z,53.82
2022-08-07T08:57:45.217Z,52.09
2022-08-07T08:58:44.867Z,51.99
2022-08-07T08:59:47.893Z,51.89
2022-08-07T09:00:48.464Z,50.07
2022-08-07T09:01:49.216Z,51.27
2022-08-07T09:02:49.372Z,47.06
2022-08-07T09:03:47.566Z,46.46
2022-08-07T09:04:44.958Z,46.34
2022-08-07T09:05:44.985Z,46.14
2022-08-07T09:06:47.936Z,46.04
2022-08-07T09:07:57.984Z,46.54
2022-08-07T09:08:46.880Z,46.46
2022-08-07T09:09:47.448Z,46.34
2022-08-07T09:10:45.171Z,47.34
2022-08-07T09:11:54.142Z,49.74
2022-08-07T09:12:53.704Z,48.82
2022-08-07T09:13:45.675Z,46.62
2022-08-07T09:14:50.714Z,46.34
2022-08-07T09:16:21.841Z,47.74
2022-08-07T09:16:45.709Z,48.74
2022-08-07T09:17:59.337Z,47.34
2022-08-07T09:18:47.380Z,47.54
2022-08-07T09:19:53.644Z,47.64
2022-08-07T09:20:58.013Z,49.22
2022-08-07T09:22:22.439Z,47.92
2022-08-07T09:24:30.451Z,48.29
2022-08-07T09:24:31.603Z,48.32
2022-08-07T09:24:58.458Z,47.89
2022-08-07T09:25:53.476Z,48.19
2022-08-07T09:26:47.925Z,47.81
2022-08-07T09:27:59.530Z,47.89
2022-08-07T09:30:05.753Z,48.39
2022-08-07T09:30:06.615Z,48.79
2022-08-07T09:30:46.405Z,50.17
2022-08-07T09:31:49.273Z,48.67
2022-08-07T09:32:44.846Z,48.07
2022-08-07T09:33:56.896Z,47.47
2022-08-07T09:34:45.574Z,47.69
2022-08-07T09:36:04.588Z,47.79
2022-08-07T09:36:46.903Z,48.29
2022-08-07T09:37:48.210Z,48.07
2022-08-07T09:38:50.279Z,48.07
2022-08-07T09:39:54.597Z,48.27
2022-08-07T09:40:45.424Z,47.87
2022-08-07T09:41:58.699Z,48.27
2022-08-07T09:42:45.680Z,48.49
2022-08-07T09:44:05.933Z,49.29
2022-08-07T09:45:03.581Z,47.77
2022-08-07T09:47:51.888Z,47.35
2022-08-07T09:47:52.481Z,48.47
2022-08-07T09:47:59.018Z,47.35
2022-08-07T09:48:56.202Z,47.55
2022-08-07T09:50:04.070Z,48.14
2022-08-07T09:50:45.567Z,47.95
2022-08-07T09:52:15.425Z,48.05
2022-08-07T09:52:51.550Z,47.45
2022-08-07T09:53:49.942Z,47.63
2022-08-07T09:54:45.316Z,47.42
2022-08-07T09:56:03.443Z,46.03
2022-08-07T09:56:46.383Z,46.20
2022-08-07T09:57:46.367Z,45.10
2022-08-07T09:58:48.808Z,45.18
2022-08-07T10:00:00.374Z,43.99
2022-08-07T10:00:45.204Z,42.45
2022-08-07T10:01:51.355Z,42.65
2022-08-07T10:02:55.838Z,44.62
2022-08-07T10:04:05.432Z,42.73
2022-08-07T10:04:47.635Z,42.63
2022-08-07T10:06:00.078Z,43.25
2022-08-07T10:06:49.159Z,42.23
2022-08-07T10:07:53.726Z,41.89
2022-08-07T10:08:45.208Z,42.07
2022-08-07T10:09:59.100Z,40.64
2022-08-07T10:11:59.847Z,40.20
2022-08-07T10:12:03.365Z,39.69
2022-08-07T10:12:52.639Z,38.56
2022-08-07T10:14:01.226Z,37.45
2022-08-07T10:14:54.323Z,39.77
2022-08-07T10:15:45.094Z,37.57
2022-08-07T10:16:44.551Z,37.17
2022-08-07T10:18:02.690Z,38.13
2022-08-07T10:18:44.992Z,37.77
2022-08-07T10:19:43.980Z,38.18
2022-08-07T10:20:44.432Z,39.17
2022-08-07T10:22:14.198Z,37.67
2022-08-07T10:22:45.359Z,37.53
2022-08-07T10:24:06.620Z,36.44
2022-08-07T10:24:45.059Z,36.36
2022-08-07T10:25:43.912Z,36.58
2022-08-07T10:26:44.229Z,36.99
2022-08-07T10:27:45.833Z,37.59
2022-08-07T10:28:49.512Z,36.77
2022-08-07T10:29:45.962Z,36.16
2022-08-07T10:30:45.112Z,36.23
2022-08-07T10:31:45.166Z,36.10
2022-08-07T10:32:52.677Z,34.99
2022-08-07T10:34:14.196Z,35.24
2022-08-07T10:34:45.278Z,35.49
2022-08-07T10:35:55.939Z,37.41
2022-08-07T10:36:45.556Z,36.93
2022-08-07T10:38:00.948Z,37.43
2022-08-07T10:38:48.785Z,36.63
2022-08-07T10:40:03.350Z,37.30
2022-08-07T10:40:44.757Z,36.71
2022-08-07T10:41:52.167Z,36.43
2022-08-07T10:42:44.743Z,38.83
2022-08-07T10:43:43.797Z,39.21
2022-08-07T10:44:45.143Z,38.22
2022-08-07T10:45:58.058Z,38.22
2022-08-07T10:46:45.232Z,38.54
2022-08-07T10:47:53.569Z,39.25
2022-08-07T10:48:44.851Z,40.06
2022-08-07T10:49:49.747Z,39.07
2022-08-07T10:50:50.217Z,40.16
2022-08-07T10:52:02.005Z,39.31
2022-08-07T10:52:48.621Z,40.32
2022-08-07T10:53:45.059Z,41.25
2022-08-07T10:54:53.134Z,40.95
2022-08-07T10:55:45.109Z,40.76
2022-08-07T10:56:43.642Z,41.06
2022-08-07T10:57:43.813Z,42.05
2022-08-07T10:58:45.956Z,42.45
2022-08-07T10:59:47.240Z,42.25
2022-08-07T11:00:56.125Z,42.05
2022-08-07T11:01:51.447Z,41.75
2022-08-07T11:02:49.113Z,41.88
2022-08-07T11:03:54.845Z,41.88
2022-08-07T11:04:45.595Z,40.78
2022-08-07T11:05:49.093Z,40.68
2022-08-07T11:06:44.661Z,41.88
2022-08-07T11:07:59.007Z,41.66
2022-08-07T11:08:44.734Z,42.73
2022-08-07T11:10:07.909Z,40.54
2022-08-07T11:10:47.665Z,40.28
2022-08-07T11:11:44.515Z,41.28
2022-08-07T11:12:44.451Z,41.60
2022-08-07T11:14:43.662Z,41.50
2022-08-07T11:14:59.864Z,41.60
2022-08-07T11:15:44.430Z,41.97
2022-08-07T11:16:49.366Z,41.36
2022-08-07T11:17:45.725Z,40.64
2022-08-07T11:18:43.486Z,40.54
2022-08-07T11:19:43.507Z,41.12
2022-08-07T11:20:43.353Z,40.70
2022-08-07T11:21:43.354Z,42.47
2022-08-07T11:22:46.188Z,41.36
2022-08-07T11:23:43.572Z,38.26
2022-08-07T11:24:45.497Z,38.14
2022-08-07T11:25:49.798Z,37.82
2022-08-07T11:26:49.945Z,36.71
2022-08-07T11:28:02.841Z,36.48
2022-08-07T11:28:44.364Z,35.86
2022-08-07T11:29:48.270Z,35.65
2022-08-07T11:30:44.366Z,35.46
2022-08-07T11:31:45.076Z,35.91
2022-08-07T11:32:43.252Z,35.22
2022-08-07T11:33:53.541Z,36.01
2022-08-07T11:34:44.328Z,35.34
2022-08-07T11:35:59.864Z,34.94
2022-08-07T11:36:44.221Z,34.86
2022-08-07T11:37:58.030Z,35.65
2022-08-07T11:38:50.571Z,35.16
2022-08-07T11:39:59.843Z,35.55
2022-08-07T11:40:49.656Z,35.24
2022-08-07T11:42:01.631Z,34.25
2022-08-07T11:42:44.131Z,34.05
2022-08-07T11:44:11.083Z,34.45
2022-08-07T11:44:52.304Z,35.02
2022-08-07T11:45:53.177Z,34.25
2022-08-07T11:46:44.123Z,35.73
2022-08-07T11:47:56.261Z,36.01
2022-08-07T11:49:04.149Z,35.02
2022-08-07T11:50:11.223Z,34.03
2022-08-07T11:50:44.585Z,34.63
2022-08-07T11:51:46.628Z,33.84
2022-08-07T11:52:43.375Z,34.03
2022-08-07T11:54:01.787Z,33.14
2022-08-07T11:54:46.305Z,34.63
2022-08-07T11:56:14.032Z,35.04
2022-08-07T11:56:44.022Z,33.56
2022-08-07T11:57:59.915Z,33.64
2022-08-07T11:58:44.069Z,36.19
2022-08-07T12:00:10.682Z,33.64
2022-08-07T12:00:53.665Z,33.36
2022-08-07T12:01:59.818Z,33.47
2022-08-07T12:02:52.072Z,33.92
2022-08-07T12:03:45.169Z,35.13
2022-08-07T12:04:43.149Z,34.43
2022-08-07T12:05:49.294Z,34.83
2022-08-07T12:06:51.648Z,34.83
2022-08-07T12:07:44.261Z,34.45
2022-08-07T12:08:44.061Z,36.05
2022-08-07T12:09:43.324Z,35.67
2022-08-07T12:10:43.161Z,36.17
2022-08-07T12:11:43.469Z,35.97
2022-08-07T12:12:43.917Z,35.66
2022-08-07T12:13:47.827Z,35.74
2022-08-07T12:14:43.966Z,35.72
2022-08-07T12:15:58.054Z,34.89
2022-08-07T12:16:43.825Z,35.14
2022-08-07T12:17:58.491Z,33.52
2022-08-07T12:18:45.179Z,32.92
2022-08-07T12:19:56.472Z,32.31
2022-08-07T12:20:43.835Z,32.29
2022-08-07T12:21:55.561Z,31.78
2022-08-07T12:22:58.256Z,31.95
2022-08-07T12:24:07.523Z,31.63
2022-08-07T12:24:43.726Z,30.96
2022-08-07T12:26:05.431Z,31.57
2022-08-07T12:26:46.591Z,31.38
2022-08-07T12:28:09.688Z,31.51
2022-08-07T12:28:44.920Z,33.14
2022-08-07T12:29:42.770Z,34.86
2022-08-07T12:30:47.009Z,34.69
2022-08-07T12:32:02.018Z,35.11
2022-08-07T12:32:43.790Z,35.03
2022-08-07T12:33:56.728Z,34.81
2022-08-07T12:34:49.518Z,34.22
2022-08-07T12:35:43.623Z,34.50
2022-08-07T12:36:42.719Z,34.28
2022-08-07T12:38:09.600Z,34.55
2022-08-07T12:38:47.425Z,33.72
2022-08-07T12:39:50.431Z,32.85
2022-08-07T12:40:46.301Z,34.05
2022-08-07T12:41:49.489Z,35.22
2022-08-07T12:42:54.871Z,34.31
2022-08-07T12:44:02.942Z,32.62
2022-08-07T12:44:44.915Z,32.52
2022-08-07T12:45:42.698Z,33.00
2022-08-07T12:46:42.496Z,34.25
2022-08-07T12:47:42.654Z,31.38
2022-08-07T12:48:52.120Z,31.19
2022-08-07T12:49:50.944Z,30.88
2022-08-07T12:50:49.079Z,31.68
2022-08-07T12:51:50.952Z,31.37
2022-08-07T12:52:46.283Z,31.26
2022-08-07T12:54:24.320Z,31.04
2022-08-07T12:54:54.545Z,30.83
2022-08-07T12:56:02.303Z,30.72